Terminal Aerodrome Forecast
Issued by NWS

Home | Current Version | Previous Version | Text Only | Print | Product List | Glossary On
Versions: 1 2 3 4 5 6 7 8 9 10 11 12 13 14 15 16 17 18 19 20 21 22 23 24 25 26 27 28 29 30 31 32 33 34 35 36 37 38
000
FTUS46 KSGX 202200 AAB
TAFSAN
TAF AMD
KSAN 202249Z 2023/2124 29008KT P6SM FEW020
     FM210300 VRB03KT P6SM OVC018
     FM211700 VRB04KT P6SM SCT020
     FM212000 29009KT P6SM SKC=

USA.gov is the U.S. government's official web portal to all federal, state and local government web resources and services.